Jefferson, Louisiana
Current Conditions -  °F | °C
As of 7:53 AM on Wednesday 28 Jan 2015 (Local Time) from KMSY Reporting Station
Clear Clear  
Wind Chill: 51°   Ceiling: Unl
Heat Index: 51°   Visibility: 10mi
Dew Point: 36°   Wind: 10mph
Humidity: 56%   Direction: 80°E
Pressure: 30.27"   Gusts: NA
Location:  29.96°N, 90.17°W
Report Text: KMSY 281353Z 08009KT 10SM CLR 11/02 A3027 RMK AO2 SLP253 T01060022
Loading
Personal Weather Stations






























Interactive Weather Map New forecast layout! Learn more

10-Day Weather Forecast

Advertisements
Track Severe Weather on mobile